sensor_id;sensor_type;location;lat;lon;timestamp;P1;durP1;ratioP1;P2;durP2;ratioP2
40695;SDS011;40425;51.102;17.208;2022-12-07T00:02:00;19.20;;;11.10;;
40695;SDS011;40425;51.102;17.208;2022-12-07T00:07:01;17.37;;;11.13;;
40695;SDS011;40425;51.102;17.208;2022-12-07T00:12:02;15.00;;;10.17;;
40695;SDS011;40425;51.102;17.208;2022-12-07T00:17:04;17.40;;;10.43;;
40695;SDS011;40425;51.102;17.208;2022-12-07T00:22:05;14.13;;;10.50;;
40695;SDS011;40425;51.102;17.208;2022-12-07T00:27:06;12.30;;;8.60;;
40695;SDS011;40425;51.102;17.208;2022-12-07T00:32:07;14.53;;;8.93;;
40695;SDS011;40425;51.102;17.208;2022-12-07T00:37:08;10.07;;;7.10;;
40695;SDS011;40425;51.102;17.208;2022-12-07T00:42:09;9.90;;;7.00;;
40695;SDS011;40425;51.102;17.208;2022-12-07T00:47:10;9.07;;;6.70;;
40695;SDS011;40425;51.102;17.208;2022-12-07T00:52:11;8.80;;;5.10;;
40695;SDS011;40425;51.102;17.208;2022-12-07T00:57:11;6.30;;;4.80;;
40695;SDS011;40425;51.102;17.208;2022-12-07T01:02:12;7.00;;;5.07;;
40695;SDS011;40425;51.102;17.208;2022-12-07T01:07:13;5.80;;;3.97;;
40695;SDS011;40425;51.102;17.208;2022-12-07T01:12:17;5.90;;;4.20;;
40695;SDS011;40425;51.102;17.208;2022-12-07T01:17:19;4.97;;;4.17;;
40695;SDS011;40425;51.102;17.208;2022-12-07T01:22:23;5.17;;;3.20;;
40695;SDS011;40425;51.102;17.208;2022-12-07T01:27:24;3.70;;;2.60;;
40695;SDS011;40425;51.102;17.208;2022-12-07T01:32:25;4.40;;;2.33;;
40695;SDS011;40425;51.102;17.208;2022-12-07T01:37:26;4.67;;;2.03;;
40695;SDS011;40425;51.102;17.208;2022-12-07T01:42:27;3.40;;;2.10;;
40695;SDS011;40425;51.102;17.208;2022-12-07T01:47:28;3.27;;;1.97;;
40695;SDS011;40425;51.102;17.208;2022-12-07T01:52:30;5.33;;;2.23;;
40695;SDS011;40425;51.102;17.208;2022-12-07T01:57:34;4.80;;;2.53;;
40695;SDS011;40425;51.102;17.208;2022-12-07T02:07:47;4.27;;;2.10;;
40695;SDS011;40425;51.102;17.208;2022-12-07T02:13:02;2.93;;;1.50;;
40695;SDS011;40425;51.102;17.208;2022-12-07T02:45:32;3.93;;;1.70;;
40695;SDS011;40425;51.102;17.208;2022-12-07T02:50:36;5.37;;;1.70;;
40695;SDS011;40425;51.102;17.208;2022-12-07T02:55:38;3.70;;;1.73;;
40695;SDS011;40425;51.102;17.208;2022-12-07T03:01:01;2.63;;;1.33;;
40695;SDS011;40425;51.102;17.208;2022-12-07T03:11:21;2.30;;;1.10;;
40695;SDS011;40425;51.102;17.208;2022-12-07T03:16:35;2.10;;;1.20;;
40695;SDS011;40425;51.102;17.208;2022-12-07T03:22:02;4.00;;;1.13;;
40695;SDS011;40425;51.102;17.208;2022-12-07T03:27:18;4.80;;;1.50;;
40695;SDS011;40425;51.102;17.208;2022-12-07T03:32:27;2.90;;;1.93;;
40695;SDS011;40425;51.102;17.208;2022-12-07T03:37:40;5.57;;;2.27;;
40695;SDS011;40425;51.102;17.208;2022-12-07T03:42:48;2.23;;;2.00;;
40695;SDS011;40425;51.102;17.208;2022-12-07T03:52:55;3.40;;;2.50;;
40695;SDS011;40425;51.102;17.208;2022-12-07T03:58:02;4.33;;;3.00;;
40695;SDS011;40425;51.102;17.208;2022-12-07T04:03:07;5.30;;;3.60;;
40695;SDS011;40425;51.102;17.208;2022-12-07T04:08:08;4.27;;;3.40;;
40695;SDS011;40425;51.102;17.208;2022-12-07T04:13:10;3.67;;;2.60;;
40695;SDS011;40425;51.102;17.208;2022-12-07T04:18:10;4.00;;;2.90;;
40695;SDS011;40425;51.102;17.208;2022-12-07T04:23:13;4.37;;;3.33;;
40695;SDS011;40425;51.102;17.208;2022-12-07T04:28:13;4.87;;;3.27;;
40695;SDS011;40425;51.102;17.208;2022-12-07T04:33:14;2.80;;;2.13;;
40695;SDS011;40425;51.102;17.208;2022-12-07T04:38:15;2.07;;;1.30;;
40695;SDS011;40425;51.102;17.208;2022-12-07T04:43:16;1.70;;;0.90;;
40695;SDS011;40425;51.102;17.208;2022-12-07T04:48:17;1.47;;;0.70;;
40695;SDS011;40425;51.102;17.208;2022-12-07T04:53:18;1.43;;;0.80;;
40695;SDS011;40425;51.102;17.208;2022-12-07T04:58:19;1.63;;;0.80;;
40695;SDS011;40425;51.102;17.208;2022-12-07T05:03:20;1.40;;;0.73;;
40695;SDS011;40425;51.102;17.208;2022-12-07T05:08:21;1.77;;;0.80;;
40695;SDS011;40425;51.102;17.208;2022-12-07T05:13:21;1.73;;;0.60;;
40695;SDS011;40425;51.102;17.208;2022-12-07T05:18:22;1.93;;;0.77;;
40695;SDS011;40425;51.102;17.208;2022-12-07T05:23:24;2.30;;;1.23;;
40695;SDS011;40425;51.102;17.208;2022-12-07T05:28:24;4.00;;;1.67;;
40695;SDS011;40425;51.102;17.208;2022-12-07T05:33:25;2.73;;;1.67;;
40695;SDS011;40425;51.102;17.208;2022-12-07T05:38:26;4.70;;;2.33;;
40695;SDS011;40425;51.102;17.208;2022-12-07T05:43:27;3.00;;;2.07;;
40695;SDS011;40425;51.102;17.208;2022-12-07T05:48:28;3.97;;;2.67;;
40695;SDS011;40425;51.102;17.208;2022-12-07T05:53:29;5.73;;;3.37;;
40695;SDS011;40425;51.102;17.208;2022-12-07T05:58:30;6.10;;;4.57;;
40695;SDS011;40425;51.102;17.208;2022-12-07T06:03:49;7.13;;;4.77;;
40695;SDS011;40425;51.102;17.208;2022-12-07T06:08:50;9.37;;;6.27;;
40695;SDS011;40425;51.102;17.208;2022-12-07T06:13:51;10.40;;;6.10;;
40695;SDS011;40425;51.102;17.208;2022-12-07T06:18:52;13.97;;;7.40;;
40695;SDS011;40425;51.102;17.208;2022-12-07T06:23:53;11.43;;;7.43;;
40695;SDS011;40425;51.102;17.208;2022-12-07T06:28:54;11.23;;;7.67;;
40695;SDS011;40425;51.102;17.208;2022-12-07T06:34:01;15.63;;;8.83;;
40695;SDS011;40425;51.102;17.208;2022-12-07T06:39:04;13.97;;;8.80;;
40695;SDS011;40425;51.102;17.208;2022-12-07T06:44:06;15.63;;;10.17;;
40695;SDS011;40425;51.102;17.208;2022-12-07T06:49:07;20.40;;;10.43;;
40695;SDS011;40425;51.102;17.208;2022-12-07T06:54:09;14.93;;;10.43;;
40695;SDS011;40425;51.102;17.208;2022-12-07T06:59:13;16.80;;;10.20;;
40695;SDS011;40425;51.102;17.208;2022-12-07T07:04:14;14.23;;;9.40;;
40695;SDS011;40425;51.102;17.208;2022-12-07T07:09:15;17.30;;;9.90;;
40695;SDS011;40425;51.102;17.208;2022-12-07T07:14:16;16.17;;;9.73;;
40695;SDS011;40425;51.102;17.208;2022-12-07T07:19:19;15.10;;;9.37;;
40695;SDS011;40425;51.102;17.208;2022-12-07T07:24:19;21.43;;;11.37;;
40695;SDS011;40425;51.102;17.208;2022-12-07T07:29:20;15.87;;;9.90;;
40695;SDS011;40425;51.102;17.208;2022-12-07T07:34:21;14.17;;;9.30;;
40695;SDS011;40425;51.102;17.208;2022-12-07T07:39:22;18.40;;;8.97;;
40695;SDS011;40425;51.102;17.208;2022-12-07T07:44:23;12.93;;;8.63;;
40695;SDS011;40425;51.102;17.208;2022-12-07T07:49:24;12.93;;;9.03;;
40695;SDS011;40425;51.102;17.208;2022-12-07T07:54:24;17.73;;;10.00;;
40695;SDS011;40425;51.102;17.208;2022-12-07T07:59:25;14.27;;;9.27;;
40695;SDS011;40425;51.102;17.208;2022-12-07T08:04:26;16.10;;;9.30;;
40695;SDS011;40425;51.102;17.208;2022-12-07T08:09:27;13.90;;;8.93;;
40695;SDS011;40425;51.102;17.208;2022-12-07T08:14:28;12.43;;;8.70;;
40695;SDS011;40425;51.102;17.208;2022-12-07T08:19:29;18.00;;;8.57;;
40695;SDS011;40425;51.102;17.208;2022-12-07T08:24:29;12.47;;;8.83;;
40695;SDS011;40425;51.102;17.208;2022-12-07T08:29:32;15.13;;;8.80;;
40695;SDS011;40425;51.102;17.208;2022-12-07T08:34:33;20.30;;;8.23;;
40695;SDS011;40425;51.102;17.208;2022-12-07T08:39:34;12.83;;;8.80;;
40695;SDS011;40425;51.102;17.208;2022-12-07T08:44:35;12.97;;;8.43;;
40695;SDS011;40425;51.102;17.208;2022-12-07T08:49:37;14.30;;;8.30;;
40695;SDS011;40425;51.102;17.208;2022-12-07T08:54:40;12.03;;;7.23;;
40695;SDS011;40425;51.102;17.208;2022-12-07T08:59:42;11.67;;;8.13;;
40695;SDS011;40425;51.102;17.208;2022-12-07T09:04:43;11.70;;;7.43;;
40695;SDS011;40425;51.102;17.208;2022-12-07T09:09:44;9.87;;;6.37;;
40695;SDS011;40425;51.102;17.208;2022-12-07T09:14:45;8.83;;;6.20;;
40695;SDS011;40425;51.102;17.208;2022-12-07T09:19:45;12.50;;;8.07;;
40695;SDS011;40425;51.102;17.208;2022-12-07T09:24:46;10.90;;;6.70;;
40695;SDS011;40425;51.102;17.208;2022-12-07T09:29:47;10.73;;;6.47;;
40695;SDS011;40425;51.102;17.208;2022-12-07T09:34:48;11.83;;;6.87;;
40695;SDS011;40425;51.102;17.208;2022-12-07T09:39:49;11.53;;;7.33;;
40695;SDS011;40425;51.102;17.208;2022-12-07T09:44:50;6.30;;;4.60;;
40695;SDS011;40425;51.102;17.208;2022-12-07T09:49:51;5.60;;;4.17;;
40695;SDS011;40425;51.102;17.208;2022-12-07T09:54:52;5.50;;;4.03;;
40695;SDS011;40425;51.102;17.208;2022-12-07T09:59:54;6.27;;;3.97;;
40695;SDS011;40425;51.102;17.208;2022-12-07T10:04:57;5.83;;;4.40;;
40695;SDS011;40425;51.102;17.208;2022-12-07T10:09:59;7.13;;;4.10;;
40695;SDS011;40425;51.102;17.208;2022-12-07T10:15:03;7.13;;;5.20;;
40695;SDS011;40425;51.102;17.208;2022-12-07T10:20:17;9.60;;;6.00;;
40695;SDS011;40425;51.102;17.208;2022-12-07T10:25:18;14.30;;;4.73;;
40695;SDS011;40425;51.102;17.208;2022-12-07T10:30:20;7.70;;;5.10;;
40695;SDS011;40425;51.102;17.208;2022-12-07T10:35:26;9.33;;;5.87;;
40695;SDS011;40425;51.102;17.208;2022-12-07T10:40:31;9.43;;;5.50;;
40695;SDS011;40425;51.102;17.208;2022-12-07T10:45:38;9.67;;;6.90;;
40695;SDS011;40425;51.102;17.208;2022-12-07T10:51:00;11.93;;;6.50;;
40695;SDS011;40425;51.102;17.208;2022-12-07T10:56:25;12.40;;;7.27;;
40695;SDS011;40425;51.102;17.208;2022-12-07T11:01:54;8.50;;;5.87;;
40695;SDS011;40425;51.102;17.208;2022-12-07T11:17:24;3.83;;;1.97;;
40695;SDS011;40425;51.102;17.208;2022-12-07T11:27:47;2.10;;;1.03;;
40695;SDS011;40425;51.102;17.208;2022-12-07T11:38:11;4.40;;;1.60;;
40695;SDS011;40425;51.102;17.208;2022-12-07T11:48:33;2.70;;;1.37;;
40695;SDS011;40425;51.102;17.208;2022-12-07T11:53:44;2.97;;;1.33;;
40695;SDS011;40425;51.102;17.208;2022-12-07T11:58:51;5.17;;;1.83;;
40695;SDS011;40425;51.102;17.208;2022-12-07T12:09:10;3.40;;;1.70;;
40695;SDS011;40425;51.102;17.208;2022-12-07T12:24:56;2.73;;;1.50;;
40695;SDS011;40425;51.102;17.208;2022-12-07T12:29:59;3.07;;;1.60;;
40695;SDS011;40425;51.102;17.208;2022-12-07T12:45:28;6.63;;;1.80;;
40695;SDS011;40425;51.102;17.208;2022-12-07T12:50:35;3.57;;;1.80;;
40695;SDS011;40425;51.102;17.208;2022-12-07T12:56:03;3.73;;;1.40;;
40695;SDS011;40425;51.102;17.208;2022-12-07T13:11:38;3.87;;;2.03;;
40695;SDS011;40425;51.102;17.208;2022-12-07T13:16:44;4.67;;;1.77;;
40695;SDS011;40425;51.102;17.208;2022-12-07T13:21:45;3.60;;;1.63;;
40695;SDS011;40425;51.102;17.208;2022-12-07T13:26:46;8.33;;;1.77;;
40695;SDS011;40425;51.102;17.208;2022-12-07T13:31:56;3.70;;;2.30;;
40695;SDS011;40425;51.102;17.208;2022-12-07T13:37:04;3.87;;;2.50;;
40695;SDS011;40425;51.102;17.208;2022-12-07T13:42:12;3.63;;;2.27;;
40695;SDS011;40425;51.102;17.208;2022-12-07T13:52:44;5.40;;;2.40;;
40695;SDS011;40425;51.102;17.208;2022-12-07T13:57:47;6.00;;;2.20;;
40695;SDS011;40425;51.102;17.208;2022-12-07T14:02:55;6.37;;;2.17;;
40695;SDS011;40425;51.102;17.208;2022-12-07T14:08:02;8.10;;;4.10;;
40695;SDS011;40425;51.102;17.208;2022-12-07T14:18:36;8.77;;;3.10;;
40695;SDS011;40425;51.102;17.208;2022-12-07T14:23:40;8.50;;;2.33;;
40695;SDS011;40425;51.102;17.208;2022-12-07T14:28:41;7.30;;;3.10;;
40695;SDS011;40425;51.102;17.208;2022-12-07T14:33:43;6.97;;;4.30;;
40695;SDS011;40425;51.102;17.208;2022-12-07T14:38:44;5.07;;;3.20;;
40695;SDS011;40425;51.102;17.208;2022-12-07T14:43:45;10.37;;;3.97;;
40695;SDS011;40425;51.102;17.208;2022-12-07T14:48:46;9.07;;;4.00;;
40695;SDS011;40425;51.102;17.208;2022-12-07T14:53:48;7.67;;;3.40;;
40695;SDS011;40425;51.102;17.208;2022-12-07T14:58:52;5.60;;;2.27;;
40695;SDS011;40425;51.102;17.208;2022-12-07T15:03:53;11.03;;;3.97;;
40695;SDS011;40425;51.102;17.208;2022-12-07T15:08:54;6.53;;;3.23;;
40695;SDS011;40425;51.102;17.208;2022-12-07T15:13:55;15.00;;;5.60;;
40695;SDS011;40425;51.102;17.208;2022-12-07T15:19:17;8.00;;;2.80;;
40695;SDS011;40425;51.102;17.208;2022-12-07T15:24:22;8.57;;;2.97;;
40695;SDS011;40425;51.102;17.208;2022-12-07T15:29:24;8.27;;;3.30;;
40695;SDS011;40425;51.102;17.208;2022-12-07T15:34:26;8.60;;;3.40;;
40695;SDS011;40425;51.102;17.208;2022-12-07T15:39:28;7.33;;;3.37;;
40695;SDS011;40425;51.102;17.208;2022-12-07T15:44:30;8.60;;;3.57;;
40695;SDS011;40425;51.102;17.208;2022-12-07T15:49:50;13.23;;;5.57;;
40695;SDS011;40425;51.102;17.208;2022-12-07T15:54:50;6.97;;;3.50;;
40695;SDS011;40425;51.102;17.208;2022-12-07T15:59:52;7.90;;;4.27;;
40695;SDS011;40425;51.102;17.208;2022-12-07T16:04:54;16.20;;;6.30;;
40695;SDS011;40425;51.102;17.208;2022-12-07T16:09:55;9.40;;;3.40;;
40695;SDS011;40425;51.102;17.208;2022-12-07T16:14:56;8.80;;;4.17;;
40695;SDS011;40425;51.102;17.208;2022-12-07T16:19:58;10.00;;;5.03;;
40695;SDS011;40425;51.102;17.208;2022-12-07T16:24:59;9.93;;;5.53;;
40695;SDS011;40425;51.102;17.208;2022-12-07T16:30:00;8.80;;;3.90;;
40695;SDS011;40425;51.102;17.208;2022-12-07T16:35:01;7.60;;;4.47;;
40695;SDS011;40425;51.102;17.208;2022-12-07T16:40:03;8.63;;;4.50;;
40695;SDS011;40425;51.102;17.208;2022-12-07T16:45:06;7.23;;;3.40;;
40695;SDS011;40425;51.102;17.208;2022-12-07T16:50:07;8.90;;;3.73;;
40695;SDS011;40425;51.102;17.208;2022-12-07T16:55:08;9.80;;;4.10;;
40695;SDS011;40425;51.102;17.208;2022-12-07T17:00:09;11.30;;;4.67;;
40695;SDS011;40425;51.102;17.208;2022-12-07T17:05:10;7.03;;;4.00;;
40695;SDS011;40425;51.102;17.208;2022-12-07T17:10:11;9.13;;;2.90;;
40695;SDS011;40425;51.102;17.208;2022-12-07T17:15:12;6.33;;;3.00;;
40695;SDS011;40425;51.102;17.208;2022-12-07T17:20:21;8.30;;;3.73;;
40695;SDS011;40425;51.102;17.208;2022-12-07T17:25:24;8.13;;;3.60;;
40695;SDS011;40425;51.102;17.208;2022-12-07T17:30:26;8.00;;;3.37;;
40695;SDS011;40425;51.102;17.208;2022-12-07T17:35:28;8.87;;;4.03;;
40695;SDS011;40425;51.102;17.208;2022-12-07T17:40:28;17.20;;;7.73;;
40695;SDS011;40425;51.102;17.208;2022-12-07T17:45:29;16.57;;;9.13;;
40695;SDS011;40425;51.102;17.208;2022-12-07T17:50:30;21.50;;;8.27;;
40695;SDS011;40425;51.102;17.208;2022-12-07T17:55:52;21.07;;;9.13;;
40695;SDS011;40425;51.102;17.208;2022-12-07T18:00:54;20.30;;;8.27;;
40695;SDS011;40425;51.102;17.208;2022-12-07T18:05:55;17.80;;;9.30;;
40695;SDS011;40425;51.102;17.208;2022-12-07T18:10:59;21.77;;;10.60;;
40695;SDS011;40425;51.102;17.208;2022-12-07T18:16:04;16.67;;;9.27;;
40695;SDS011;40425;51.102;17.208;2022-12-07T18:21:11;20.47;;;10.53;;
40695;SDS011;40425;51.102;17.208;2022-12-07T18:26:16;22.23;;;11.13;;
40695;SDS011;40425;51.102;17.208;2022-12-07T18:31:18;25.33;;;13.67;;
40695;SDS011;40425;51.102;17.208;2022-12-07T18:36:20;24.53;;;13.03;;
40695;SDS011;40425;51.102;17.208;2022-12-07T18:41:22;25.87;;;12.40;;
40695;SDS011;40425;51.102;17.208;2022-12-07T18:46:23;21.70;;;12.27;;
40695;SDS011;40425;51.102;17.208;2022-12-07T18:51:24;19.27;;;10.90;;
40695;SDS011;40425;51.102;17.208;2022-12-07T18:56:24;27.07;;;12.00;;
40695;SDS011;40425;51.102;17.208;2022-12-07T19:01:26;22.03;;;10.97;;
40695;SDS011;40425;51.102;17.208;2022-12-07T19:06:27;19.17;;;10.43;;
40695;SDS011;40425;51.102;17.208;2022-12-07T19:11:29;20.70;;;11.20;;
40695;SDS011;40425;51.102;17.208;2022-12-07T19:16:50;25.53;;;13.27;;
40695;SDS011;40425;51.102;17.208;2022-12-07T19:21:54;23.07;;;11.27;;
40695;SDS011;40425;51.102;17.208;2022-12-07T19:26:55;29.67;;;13.40;;
40695;SDS011;40425;51.102;17.208;2022-12-07T19:31:59;26.23;;;13.53;;
40695;SDS011;40425;51.102;17.208;2022-12-07T19:37:06;26.73;;;14.03;;
40695;SDS011;40425;51.102;17.208;2022-12-07T19:42:10;26.43;;;12.30;;
40695;SDS011;40425;51.102;17.208;2022-12-07T19:47:11;25.73;;;12.47;;
40695;SDS011;40425;51.102;17.208;2022-12-07T19:52:15;23.33;;;11.63;;
40695;SDS011;40425;51.102;17.208;2022-12-07T19:57:16;24.73;;;12.30;;
40695;SDS011;40425;51.102;17.208;2022-12-07T20:02:17;22.93;;;11.67;;
40695;SDS011;40425;51.102;17.208;2022-12-07T20:07:18;21.67;;;11.97;;
40695;SDS011;40425;51.102;17.208;2022-12-07T20:12:18;26.77;;;13.07;;
40695;SDS011;40425;51.102;17.208;2022-12-07T20:17:38;23.53;;;12.70;;
40695;SDS011;40425;51.102;17.208;2022-12-07T20:22:39;20.13;;;12.50;;
40695;SDS011;40425;51.102;17.208;2022-12-07T20:27:39;21.10;;;10.63;;
40695;SDS011;40425;51.102;17.208;2022-12-07T20:32:40;23.80;;;11.43;;
40695;SDS011;40425;51.102;17.208;2022-12-07T20:37:41;24.70;;;12.77;;
40695;SDS011;40425;51.102;17.208;2022-12-07T20:42:42;26.27;;;12.90;;
40695;SDS011;40425;51.102;17.208;2022-12-07T20:47:43;26.77;;;12.77;;
40695;SDS011;40425;51.102;17.208;2022-12-07T20:52:44;22.10;;;10.70;;
40695;SDS011;40425;51.102;17.208;2022-12-07T20:57:44;23.23;;;11.57;;
40695;SDS011;40425;51.102;17.208;2022-12-07T21:02:45;24.57;;;12.23;;
40695;SDS011;40425;51.102;17.208;2022-12-07T21:07:47;25.07;;;10.47;;
40695;SDS011;40425;51.102;17.208;2022-12-07T21:12:48;20.03;;;8.30;;
40695;SDS011;40425;51.102;17.208;2022-12-07T21:17:49;19.00;;;9.37;;
40695;SDS011;40425;51.102;17.208;2022-12-07T21:22:49;18.30;;;7.97;;
40695;SDS011;40425;51.102;17.208;2022-12-07T21:27:50;13.30;;;6.23;;
40695;SDS011;40425;51.102;17.208;2022-12-07T21:32:51;10.77;;;5.13;;
40695;SDS011;40425;51.102;17.208;2022-12-07T21:37:52;8.90;;;4.80;;
40695;SDS011;40425;51.102;17.208;2022-12-07T21:42:53;6.47;;;3.80;;
40695;SDS011;40425;51.102;17.208;2022-12-07T21:47:54;5.70;;;3.20;;
40695;SDS011;40425;51.102;17.208;2022-12-07T21:52:56;6.00;;;3.50;;
40695;SDS011;40425;51.102;17.208;2022-12-07T21:57:58;5.40;;;3.20;;
40695;SDS011;40425;51.102;17.208;2022-12-07T22:02:59;5.20;;;3.27;;
40695;SDS011;40425;51.102;17.208;2022-12-07T22:08:00;8.33;;;3.97;;
40695;SDS011;40425;51.102;17.208;2022-12-07T22:13:00;6.47;;;3.20;;
40695;SDS011;40425;51.102;17.208;2022-12-07T22:18:01;4.87;;;3.23;;
40695;SDS011;40425;51.102;17.208;2022-12-07T22:23:02;6.93;;;3.30;;
40695;SDS011;40425;51.102;17.208;2022-12-07T22:28:03;6.53;;;3.67;;
40695;SDS011;40425;51.102;17.208;2022-12-07T22:33:04;7.67;;;3.80;;
40695;SDS011;40425;51.102;17.208;2022-12-07T22:38:05;9.07;;;3.87;;
40695;SDS011;40425;51.102;17.208;2022-12-07T22:43:06;10.23;;;4.50;;
40695;SDS011;40425;51.102;17.208;2022-12-07T22:48:07;11.57;;;4.80;;
40695;SDS011;40425;51.102;17.208;2022-12-07T22:53:08;8.80;;;4.70;;
40695;SDS011;40425;51.102;17.208;2022-12-07T22:58:09;9.13;;;4.80;;
40695;SDS011;40425;51.102;17.208;2022-12-07T23:03:10;9.07;;;3.93;;
40695;SDS011;40425;51.102;17.208;2022-12-07T23:08:12;9.60;;;5.20;;
40695;SDS011;40425;51.102;17.208;2022-12-07T23:13:15;10.53;;;6.17;;
40695;SDS011;40425;51.102;17.208;2022-12-07T23:18:31;10.03;;;6.30;;
40695;SDS011;40425;51.102;17.208;2022-12-07T23:23:33;11.60;;;5.73;;
40695;SDS011;40425;51.102;17.208;2022-12-07T23:28:34;11.93;;;6.93;;
40695;SDS011;40425;51.102;17.208;2022-12-07T23:33:36;18.83;;;9.87;;
40695;SDS011;40425;51.102;17.208;2022-12-07T23:38:38;14.50;;;7.70;;
40695;SDS011;40425;51.102;17.208;2022-12-07T23:43:40;17.90;;;8.77;;
40695;SDS011;40425;51.102;17.208;2022-12-07T23:48:41;17.87;;;8.73;;
40695;SDS011;40425;51.102;17.208;2022-12-07T23:53:43;17.10;;;8.97;;
40695;SDS011;40425;51.102;17.208;2022-12-07T23:58:47;19.77;;;9.07;;
